createdAt,value
2019-06-10T00:02:07.385Z,87.70
2019-06-10T00:04:41.582Z,87.30
2019-06-10T00:07:13.915Z,87.00
2019-06-10T00:09:47.823Z,87.60
2019-06-10T00:12:20.964Z,87.70
2019-06-10T00:14:51.728Z,87.90
2019-06-10T00:17:22.481Z,88.50
2019-06-10T00:19:53.224Z,89.60
2019-06-10T00:22:23.995Z,90.10
2019-06-10T00:24:55.153Z,90.20
2019-06-10T00:27:25.777Z,90.00
2019-06-10T00:29:56.642Z,90.10
2019-06-10T00:32:27.581Z,90.20
2019-06-10T00:34:59.386Z,90.20
2019-06-10T00:37:31.534Z,90.00
2019-06-10T00:40:05.354Z,90.10
2019-06-10T00:42:35.163Z,89.60
2019-06-10T00:45:10.930Z,89.20
2019-06-10T00:47:41.301Z,89.80
2019-06-10T00:50:14.528Z,89.60
2019-06-10T00:52:45.358Z,89.70
2019-06-10T00:55:16.536Z,90.00
2019-06-10T00:57:51.001Z,89.80
2019-06-10T01:00:25.539Z,89.90
2019-06-10T01:02:54.066Z,89.70
2019-06-10T01:05:25.083Z,90.00
2019-06-10T01:07:55.915Z,90.00
2019-06-10T01:10:26.548Z,90.30
2019-06-10T01:13:00.804Z,90.70
2019-06-10T01:15:31.748Z,91.10
2019-06-10T01:18:03.483Z,91.80
2019-06-10T01:20:34.443Z,92.20
2019-06-10T01:23:07.011Z,92.50
2019-06-10T01:25:37.841Z,93.20
2019-06-10T01:28:12.109Z,93.80
2019-06-10T01:30:41.379Z,93.90
2019-06-10T01:33:14.387Z,94.50
2019-06-10T01:35:44.776Z,94.30
2019-06-10T01:38:16.299Z,94.60
2019-06-10T01:40:47.016Z,95.10
2019-06-10T01:43:18.460Z,96.00
2019-06-10T01:45:51.147Z,95.90
2019-06-10T01:48:21.368Z,96.20
2019-06-10T01:50:52.196Z,96.10
2019-06-10T01:53:22.655Z,96.20
2019-06-10T01:55:54.794Z,96.20
2019-06-10T01:58:25.295Z,96.70
2019-06-10T02:01:15.641Z,97.10
2019-06-10T02:03:43.044Z,97.40
2019-06-10T02:06:16.577Z,99.80
2019-06-10T02:08:47.213Z,97.40
2019-06-10T02:11:22.786Z,97.40
2019-06-10T02:13:52.818Z,97.50
2019-06-10T02:16:24.199Z,97.60
2019-06-10T02:19:00.484Z,98.10
2019-06-10T02:21:27.560Z,98.10
2019-06-10T02:23:58.074Z,98.20
2019-06-10T02:26:30.850Z,98.40
2019-06-10T02:29:01.420Z,98.50
2019-06-10T02:31:37.440Z,98.50
2019-06-10T02:34:04.746Z,98.70
2019-06-10T02:36:37.017Z,98.70
2019-06-10T02:39:09.445Z,98.80
2019-06-10T02:41:44.168Z,98.90
2019-06-10T02:44:17.186Z,98.90
2019-06-10T02:46:45.154Z,98.80
2019-06-10T02:49:29.709Z,99.00
2019-06-10T02:51:48.130Z,98.80
2019-06-10T02:54:20.844Z,99.00
2019-06-10T02:56:53.765Z,98.80
2019-06-10T02:59:27.508Z,98.90
2019-06-10T03:01:56.062Z,99.40
2019-06-10T03:04:32.348Z,99.60
2019-06-10T03:06:59.260Z,99.60
2019-06-10T03:09:34.686Z,99.30
2019-06-10T03:12:04.767Z,99.40
2019-06-10T03:14:35.011Z,99.30
2019-06-10T03:17:12.451Z,99.10
2019-06-10T03:19:50.122Z,99.50
2019-06-10T03:22:16.035Z,99.80
2019-06-10T03:24:47.920Z,99.70
2019-06-10T03:27:18.660Z,99.50
2019-06-10T03:29:49.232Z,99.80
2019-06-10T03:32:23.193Z,99.90
2019-06-10T03:34:54.758Z,99.90
2019-06-10T03:37:26.865Z,99.90
2019-06-10T03:39:58.670Z,99.90
2019-06-10T03:42:29.220Z,99.90
2019-06-10T03:45:00.076Z,99.50
2019-06-10T03:47:32.476Z,99.90
2019-06-10T03:50:03.417Z,99.90
2019-06-10T03:52:33.985Z,99.90
2019-06-10T03:55:06.485Z,99.90
2019-06-10T03:57:37.255Z,99.90
2019-06-10T04:00:11.284Z,99.90
2019-06-10T04:02:42.822Z,99.90
2019-06-10T04:05:13.488Z,99.90
2019-06-10T04:07:44.522Z,99.90
2019-06-10T04:10:15.613Z,99.90
2019-06-10T04:12:46.449Z,99.90
2019-06-10T04:15:17.666Z,99.90
2019-06-10T04:17:48.264Z,99.90
2019-06-10T04:20:23.062Z,99.90
2019-06-10T04:22:52.642Z,99.90
2019-06-10T04:25:27.613Z,99.90
2019-06-10T04:27:56.854Z,99.90
2019-06-10T04:30:28.981Z,99.90
2019-06-10T04:33:02.168Z,99.90
2019-06-10T04:35:33.648Z,99.90
2019-06-10T04:38:04.353Z,99.90
2019-06-10T04:40:35.222Z,99.90
2019-06-10T04:43:06.505Z,99.90
2019-06-10T04:45:37.298Z,99.90
2019-06-10T04:48:07.951Z,99.90
2019-06-10T04:50:45.457Z,99.90
2019-06-10T04:53:12.918Z,99.90
2019-06-10T04:55:43.369Z,99.90
2019-06-10T04:58:14.256Z,99.90
2019-06-10T05:00:44.893Z,99.90
2019-06-10T05:03:15.892Z,99.90
2019-06-10T05:05:46.631Z,99.90
2019-06-10T05:08:17.507Z,99.90
2019-06-10T05:10:49.977Z,99.90
2019-06-10T05:13:23.802Z,99.90
2019-06-10T05:15:53.927Z,99.90
2019-06-10T05:18:25.935Z,99.90
2019-06-10T05:21:02.224Z,99.90
2019-06-10T05:23:33.392Z,99.90
2019-06-10T05:26:04.560Z,99.90
2019-06-10T05:28:35.567Z,99.90
2019-06-10T05:31:06.508Z,99.90
2019-06-10T05:33:37.333Z,99.90
2019-06-10T05:36:08.078Z,99.90
2019-06-10T05:38:43.154Z,99.90
2019-06-10T05:41:13.528Z,99.90
2019-06-10T05:43:44.762Z,99.90
2019-06-10T05:46:16.094Z,99.90
2019-06-10T05:48:46.805Z,99.90
2019-06-10T05:51:17.915Z,99.90
2019-06-10T05:53:48.707Z,99.90
2019-06-10T05:56:21.939Z,99.90
2019-06-10T05:59:04.368Z,99.90
2019-06-10T06:01:38.683Z,99.90
2019-06-10T06:04:12.728Z,99.90
2019-06-10T06:06:45.115Z,99.90
2019-06-10T06:09:15.929Z,99.90
2019-06-10T06:11:46.836Z,99.90
2019-06-10T06:14:17.740Z,99.90
2019-06-10T06:16:48.372Z,99.90
2019-06-10T06:19:19.198Z,99.90
2019-06-10T06:21:49.734Z,99.90
2019-06-10T06:24:22.057Z,99.90
2019-06-10T06:26:57.608Z,99.90
2019-06-10T06:29:28.884Z,99.90
2019-06-10T06:31:59.776Z,99.90
2019-06-10T06:34:32.680Z,99.90
2019-06-10T06:37:02.783Z,99.90
2019-06-10T06:39:35.127Z,99.90
2019-06-10T06:42:06.879Z,99.90
2019-06-10T06:44:38.133Z,99.90
2019-06-10T06:47:10.075Z,99.90
2019-06-10T06:49:42.561Z,99.90
2019-06-10T06:52:13.085Z,99.90
2019-06-10T06:54:44.209Z,99.90
2019-06-10T06:57:14.910Z,99.90
2019-06-10T06:59:45.808Z,99.90
2019-06-10T07:02:16.509Z,99.90
2019-06-10T07:04:47.775Z,99.90
2019-06-10T07:07:22.087Z,99.90
2019-06-10T07:09:55.277Z,99.90
2019-06-10T07:12:25.966Z,99.90
2019-06-10T07:14:56.579Z,99.90
2019-06-10T07:17:28.980Z,99.90
2019-06-10T07:19:59.621Z,99.90
2019-06-10T07:22:33.717Z,99.90
2019-06-10T07:25:06.645Z,99.90
2019-06-10T07:27:40.117Z,99.90
2019-06-10T07:30:14.282Z,99.90
2019-06-10T07:32:47.143Z,99.90
2019-06-10T07:35:15.894Z,99.90
2019-06-10T07:37:46.662Z,99.90
2019-06-10T07:40:18.979Z,99.90
2019-06-10T07:42:49.590Z,99.90
2019-06-10T07:45:22.135Z,99.90
2019-06-10T07:47:52.831Z,99.90
2019-06-10T07:50:23.636Z,99.90
2019-06-10T07:52:54.577Z,99.90
2019-06-10T07:55:25.352Z,99.90
2019-06-10T07:57:56.772Z,99.90
2019-06-10T08:00:27.662Z,99.90
2019-06-10T08:02:58.228Z,99.90
2019-06-10T08:05:29.075Z,99.90
2019-06-10T08:08:02.679Z,99.90
2019-06-10T08:10:32.788Z,99.90
2019-06-10T08:13:03.601Z,99.90
2019-06-10T08:15:35.476Z,99.90
2019-06-10T08:18:07.453Z,99.90
2019-06-10T08:20:47.616Z,99.90
2019-06-10T08:23:23.367Z,99.90
2019-06-10T08:25:57.643Z,99.90
2019-06-10T08:28:26.472Z,99.90
2019-06-10T08:30:57.422Z,99.90
2019-06-10T08:33:28.288Z,99.90
2019-06-10T08:36:00.650Z,99.90
2019-06-10T08:38:33.451Z,99.90
2019-06-10T08:41:04.431Z,99.90
2019-06-10T08:43:36.441Z,99.90
2019-06-10T08:46:07.430Z,99.90
2019-06-10T08:48:39.059Z,99.90
2019-06-10T08:51:12.316Z,99.90
2019-06-10T08:53:46.177Z,99.90
2019-06-10T08:56:14.758Z,99.90
2019-06-10T08:58:48.877Z,99.90
2019-06-10T09:01:18.806Z,99.90
2019-06-10T09:03:53.020Z,99.90
2019-06-10T09:06:23.219Z,99.90
2019-06-10T09:08:54.592Z,99.90
2019-06-10T09:11:26.681Z,99.90
2019-06-10T09:13:57.184Z,99.90
2019-06-10T09:16:28.121Z,99.90
2019-06-10T09:19:02.099Z,99.90
2019-06-10T09:21:32.983Z,99.90
2019-06-10T09:24:04.116Z,99.90
2019-06-10T09:26:35.016Z,99.90
2019-06-10T09:29:05.710Z,99.90
2019-06-10T09:31:39.452Z,99.90
2019-06-10T09:34:12.720Z,99.90
2019-06-10T09:36:46.632Z,99.90
2019-06-10T09:39:15.897Z,99.90
2019-06-10T09:41:55.399Z,99.90
2019-06-10T09:44:18.920Z,99.90
2019-06-10T09:46:55.828Z,99.90
2019-06-10T09:49:25.785Z,99.90
2019-06-10T09:51:57.679Z,99.90
2019-06-10T09:54:28.948Z,99.90
2019-06-10T09:57:02.249Z,99.90
2019-06-10T09:59:32.242Z,99.90
2019-06-10T10:02:06.411Z,99.90
2019-06-10T10:04:37.499Z,99.90
2019-06-10T10:07:08.248Z,99.90
2019-06-10T10:09:39.372Z,99.90
2019-06-10T10:12:14.198Z,99.90
2019-06-10T10:14:48.135Z,99.90
2019-06-10T10:17:17.690Z,99.90
2019-06-10T10:19:50.297Z,99.90
2019-06-10T10:22:22.883Z,99.90
2019-06-10T10:24:56.697Z,99.90
2019-06-10T10:27:25.752Z,99.90
2019-06-10T10:29:57.394Z,99.90
2019-06-10T10:32:29.176Z,99.90
2019-06-10T10:35:02.761Z,99.90
2019-06-10T10:37:32.828Z,99.90
2019-06-10T10:40:05.711Z,99.90
2019-06-10T10:42:45.514Z,99.90
2019-06-10T10:45:13.069Z,99.90
2019-06-10T10:47:44.873Z,99.90
2019-06-10T10:50:22.577Z,99.90
2019-06-10T10:52:53.932Z,99.90
2019-06-10T10:55:24.589Z,99.90
2019-06-10T10:57:55.894Z,99.90
2019-06-10T11:00:32.559Z,99.90
2019-06-10T11:03:02.757Z,99.90
2019-06-10T11:06:00.494Z,99.90
2019-06-10T11:08:27.578Z,99.90
2019-06-10T11:11:03.624Z,99.90
2019-06-10T11:13:35.773Z,99.90
2019-06-10T11:16:06.610Z,99.90
2019-06-10T11:18:39.077Z,99.90
2019-06-10T11:21:09.800Z,99.90
2019-06-10T11:23:43.210Z,99.90
2019-06-10T11:26:13.459Z,99.90
2019-06-10T11:28:45.285Z,99.90
2019-06-10T11:31:15.993Z,99.90
2019-06-10T11:33:47.022Z,99.90
2019-06-10T11:36:19.375Z,99.90
2019-06-10T11:38:51.168Z,99.90
2019-06-10T11:41:23.700Z,99.90
2019-06-10T11:43:57.755Z,99.90
2019-06-10T11:46:26.633Z,99.90
2019-06-10T11:48:58.964Z,99.90
2019-06-10T11:51:29.991Z,99.90
2019-06-10T11:54:03.268Z,99.90
2019-06-10T11:56:33.758Z,99.90
2019-06-10T11:59:09.372Z,99.90
2019-06-10T12:01:37.189Z,99.90
2019-06-10T12:04:08.066Z,99.90
2019-06-10T12:06:39.002Z,99.90
2019-06-10T12:09:13.698Z,99.90
2019-06-10T12:11:44.763Z,99.90
2019-06-10T12:14:15.380Z,99.90
2019-06-10T12:19:18.271Z,99.90
2019-06-10T12:21:49.764Z,99.90
2019-06-10T12:24:22.901Z,99.90
2019-06-10T12:26:55.261Z,99.90
2019-06-10T12:29:24.845Z,99.90
2019-06-10T12:31:58.530Z,99.90
2019-06-10T12:34:27.855Z,99.90
2019-06-10T12:37:07.464Z,99.90
2019-06-10T12:39:31.719Z,99.90
2019-06-10T12:42:06.093Z,99.90
2019-06-10T12:44:35.057Z,99.90
2019-06-10T12:47:08.213Z,99.90
2019-06-10T12:49:38.358Z,99.90
2019-06-10T12:52:09.562Z,99.90
2019-06-10T12:54:42.341Z,99.90
2019-06-10T12:57:16.544Z,99.90
2019-06-10T12:59:47.415Z,99.90
2019-06-10T13:02:23.103Z,99.90
2019-06-10T13:04:52.235Z,99.90
2019-06-10T13:07:23.878Z,99.90
2019-06-10T13:09:57.772Z,99.90
2019-06-10T13:12:32.575Z,99.90
2019-06-10T13:15:05.066Z,99.90
2019-06-10T13:17:35.519Z,99.90
2019-06-10T13:20:08.273Z,99.90
2019-06-10T13:22:38.932Z,99.90
2019-06-10T13:25:09.599Z,99.90
2019-06-10T13:27:42.670Z,99.90
2019-06-10T13:30:12.952Z,99.90
2019-06-10T13:32:43.966Z,99.90
2019-06-10T13:35:14.834Z,99.90
2019-06-10T13:37:45.918Z,99.90
2019-06-10T13:40:17.360Z,99.90
2019-06-10T13:42:48.152Z,99.90
2019-06-10T13:45:19.232Z,99.90
2019-06-10T13:47:49.851Z,99.90
2019-06-10T13:50:22.081Z,99.90
2019-06-10T13:52:53.320Z,99.90
2019-06-10T13:55:24.135Z,99.90
2019-06-10T13:57:54.841Z,99.90
2019-06-10T14:00:40.656Z,99.90
2019-06-10T14:02:59.936Z,99.90
2019-06-10T14:05:34.071Z,99.90
2019-06-10T14:08:06.404Z,99.90
2019-06-10T14:10:36.710Z,99.90
2019-06-10T14:13:09.540Z,99.90
2019-06-10T14:15:42.547Z,99.90
2019-06-10T14:18:15.152Z,99.90
2019-06-10T14:20:45.535Z,99.90
2019-06-10T14:23:18.973Z,99.90
2019-06-10T14:25:51.973Z,99.90
2019-06-10T14:28:38.088Z,99.90
2019-06-10T14:30:54.544Z,99.90
2019-06-10T14:33:25.914Z,99.90
2019-06-10T14:35:56.603Z,99.90
2019-06-10T14:38:32.551Z,99.90
2019-06-10T14:41:04.771Z,99.90
2019-06-10T14:43:35.507Z,99.90
2019-06-10T14:46:07.358Z,99.90
2019-06-10T14:48:38.321Z,99.90
2019-06-10T14:51:08.957Z,99.90
2019-06-10T14:53:39.607Z,99.90
2019-06-10T14:56:16.006Z,99.90
2019-06-10T14:58:43.037Z,99.90
2019-06-10T15:01:23.735Z,99.90
2019-06-10T15:03:49.059Z,99.90
2019-06-10T15:06:20.524Z,99.90
2019-06-10T15:08:55.309Z,99.90
2019-06-10T15:11:27.677Z,99.90
2019-06-10T15:13:57.993Z,99.90
2019-06-10T15:16:28.985Z,99.90
2019-06-10T15:19:11.735Z,99.90
2019-06-10T15:21:32.414Z,99.90
2019-06-10T15:24:04.868Z,99.90
2019-06-10T15:26:36.266Z,99.90
2019-06-10T15:29:06.815Z,99.90
2019-06-10T15:31:37.574Z,99.90
2019-06-10T15:34:08.583Z,99.90
2019-06-10T15:36:39.430Z,99.90
2019-06-10T15:39:11.703Z,99.90
2019-06-10T15:41:43.021Z,99.90
2019-06-10T15:44:27.886Z,99.90
2019-06-10T15:46:46.899Z,99.90
2019-06-10T15:49:19.748Z,99.90
2019-06-10T15:51:49.808Z,99.90
2019-06-10T15:54:25.146Z,99.90
2019-06-10T15:56:56.534Z,99.90
2019-06-10T15:59:25.505Z,99.90
2019-06-10T16:01:56.305Z,99.90
2019-06-10T16:04:29.722Z,99.90
2019-06-10T16:06:59.410Z,99.90
2019-06-10T16:09:32.167Z,99.90
2019-06-10T16:12:02.902Z,99.90
2019-06-10T16:14:35.517Z,99.90
2019-06-10T16:17:06.614Z,99.90
2019-06-10T16:19:38.375Z,99.90
2019-06-10T16:22:09.163Z,99.90
2019-06-10T16:24:42.164Z,99.90
2019-06-10T16:27:13.857Z,99.90
2019-06-10T16:29:44.594Z,99.90
2019-06-10T16:32:16.350Z,99.90
2019-06-10T16:34:46.917Z,99.90
2019-06-10T16:37:19.170Z,99.90
2019-06-10T16:39:52.415Z,99.90
2019-06-10T16:42:25.685Z,99.90
2019-06-10T16:44:54.797Z,99.90
2019-06-10T16:47:27.388Z,99.90
2019-06-10T16:49:58.450Z,99.90
2019-06-10T16:52:34.070Z,99.90
2019-06-10T16:55:03.233Z,99.90
2019-06-10T16:57:33.893Z,99.90
2019-06-10T17:00:11.221Z,99.90
2019-06-10T17:02:37.135Z,99.90
2019-06-10T17:05:08.380Z,99.90
2019-06-10T17:07:39.283Z,99.90
2019-06-10T17:10:12.555Z,99.90
2019-06-10T17:12:42.710Z,99.90
2019-06-10T17:15:13.937Z,99.90
2019-06-10T17:17:44.684Z,99.90
2019-06-10T17:20:15.590Z,99.90
2019-06-10T17:22:46.324Z,99.90
2019-06-10T17:25:19.059Z,99.90
2019-06-10T17:27:49.769Z,99.90
2019-06-10T17:30:23.679Z,99.90
2019-06-10T17:32:54.494Z,99.90
2019-06-10T17:35:26.189Z,99.90
2019-06-10T17:37:57.018Z,99.90
2019-06-10T17:40:28.041Z,99.90
2019-06-10T17:43:02.268Z,99.90
2019-06-10T17:45:32.264Z,99.90
2019-06-10T17:48:04.343Z,99.90
2019-06-10T17:50:35.197Z,99.90
2019-06-10T17:53:06.024Z,99.90
2019-06-10T17:55:39.773Z,99.90
2019-06-10T17:58:12.954Z,99.90
2019-06-10T18:00:44.198Z,99.90
2019-06-10T18:03:15.415Z,99.90
2019-06-10T18:05:46.072Z,99.90
2019-06-10T18:08:16.669Z,99.90
2019-06-10T18:10:47.330Z,99.90
2019-06-10T18:13:18.447Z,99.90
2019-06-10T18:15:48.981Z,99.90
2019-06-10T18:18:19.624Z,99.90
2019-06-10T18:20:53.583Z,99.90
2019-06-10T18:23:23.125Z,99.90
2019-06-10T18:25:56.004Z,99.90
2019-06-10T18:28:27.024Z,99.90
2019-06-10T18:30:57.622Z,99.90
2019-06-10T18:33:29.574Z,99.90
2019-06-10T18:36:00.194Z,99.90
2019-06-10T18:38:33.938Z,99.90
2019-06-10T18:41:03.381Z,99.90
2019-06-10T18:43:35.345Z,99.90
2019-06-10T18:46:06.604Z,99.90
2019-06-10T18:48:38.171Z,99.90
2019-06-10T18:51:12.492Z,99.90
2019-06-10T18:53:43.196Z,99.90
2019-06-10T18:56:13.998Z,99.90
2019-06-10T18:58:44.614Z,99.90
2019-06-10T19:01:15.386Z,99.90
2019-06-10T19:03:46.174Z,99.90
2019-06-10T19:06:16.885Z,99.90
2019-06-10T19:08:47.515Z,99.90
2019-06-10T19:11:18.762Z,99.90
2019-06-10T19:13:49.873Z,99.90
2019-06-10T19:16:23.289Z,99.90
2019-06-10T19:18:53.612Z,99.90
2019-06-10T19:21:24.762Z,99.90
2019-06-10T19:23:55.927Z,99.90
2019-06-10T19:26:26.813Z,99.90
2019-06-10T19:28:57.865Z,99.90
2019-06-10T19:31:28.666Z,99.90
2019-06-10T19:33:59.504Z,99.90
2019-06-10T19:36:31.441Z,99.90
2019-06-10T19:39:02.404Z,99.90
2019-06-10T19:41:38.052Z,99.90
2019-06-10T19:44:07.370Z,99.90
2019-06-10T19:46:39.708Z,99.90
2019-06-10T19:49:13.368Z,99.90
2019-06-10T19:51:46.279Z,99.90
2019-06-10T19:54:18.031Z,99.90
2019-06-10T19:56:48.811Z,99.90
2019-06-10T19:59:20.198Z,99.90
2019-06-10T20:01:53.892Z,99.90
2019-06-10T20:04:23.589Z,99.90
2019-06-10T20:06:54.330Z,99.90
2019-06-10T20:09:24.931Z,99.90
2019-06-10T20:11:55.704Z,99.90
2019-06-10T20:14:26.413Z,99.90
2019-06-10T20:16:57.194Z,99.90
2019-06-10T20:19:28.260Z,99.90
2019-06-10T20:21:59.166Z,99.90
2019-06-10T20:24:29.827Z,99.90
2019-06-10T20:27:03.045Z,99.90
2019-06-10T20:29:33.506Z,99.90
2019-06-10T20:32:04.662Z,99.90
2019-06-10T20:34:35.501Z,99.90
2019-06-10T20:37:09.352Z,99.90
2019-06-10T20:39:42.726Z,99.90
2019-06-10T20:42:12.960Z,99.90
2019-06-10T20:44:45.916Z,99.90
2019-06-10T20:47:16.076Z,99.90
2019-06-10T20:49:50.821Z,99.90
2019-06-10T20:52:22.067Z,99.90
2019-06-10T20:54:53.248Z,99.90
2019-06-10T20:57:26.160Z,99.90
2019-06-10T21:00:00.188Z,99.90
2019-06-10T21:02:33.767Z,99.90
2019-06-10T21:05:04.508Z,99.90
2019-06-10T21:07:39.154Z,99.90
2019-06-10T21:10:10.194Z,99.90
2019-06-10T21:12:44.344Z,99.90
2019-06-10T21:15:14.405Z,99.90
2019-06-10T21:17:46.339Z,99.90
2019-06-10T21:20:17.216Z,99.90
2019-06-10T21:22:49.115Z,99.90
2019-06-10T21:25:19.655Z,99.90
2019-06-10T21:27:53.851Z,99.90
2019-06-10T21:30:37.523Z,99.90
2019-06-10T21:32:55.194Z,99.90
2019-06-10T21:35:26.086Z,99.90
2019-06-10T21:37:59.050Z,99.90
2019-06-10T21:40:29.704Z,99.90
2019-06-10T21:43:02.609Z,99.90
2019-06-10T21:45:32.949Z,99.90
2019-06-10T21:48:03.924Z,99.90
2019-06-10T21:50:34.759Z,99.90
2019-06-10T21:53:05.622Z,99.90
2019-06-10T21:55:36.397Z,99.90
2019-06-10T21:58:08.032Z,99.90
2019-06-10T22:01:03.251Z,99.90
2019-06-10T22:03:23.416Z,99.90
2019-06-10T22:05:54.452Z,99.90
2019-06-10T22:08:26.040Z,99.90
2019-06-10T22:11:02.310Z,99.90
2019-06-10T22:13:32.829Z,99.90
2019-06-10T22:16:03.769Z,99.90
2019-06-10T22:18:34.457Z,99.90
2019-06-10T22:21:07.525Z,99.90
2019-06-10T22:23:38.372Z,99.90
2019-06-10T22:26:09.497Z,99.90
2019-06-10T22:28:40.403Z,99.90
2019-06-10T22:31:19.811Z,99.90
2019-06-10T22:33:45.213Z,99.90
2019-06-10T22:36:15.885Z,99.90
2019-06-10T22:38:47.816Z,99.90
2019-06-10T22:41:18.817Z,99.90
2019-06-10T22:43:49.902Z,99.90
2019-06-10T22:46:22.975Z,99.90
2019-06-10T22:48:53.412Z,99.90
2019-06-10T22:51:24.374Z,99.90
2019-06-10T22:53:58.199Z,99.90
2019-06-10T22:56:27.514Z,99.90
2019-06-10T22:58:58.306Z,99.90
2019-06-10T23:01:37.443Z,99.90
2019-06-10T23:04:03.859Z,99.90
2019-06-10T23:06:34.732Z,99.90
2019-06-10T23:09:05.948Z,99.90
2019-06-10T23:11:36.523Z,99.90
2019-06-10T23:14:09.195Z,99.90
2019-06-10T23:16:43.430Z,99.90
2019-06-10T23:19:14.612Z,99.90
2019-06-10T23:21:47.136Z,99.90
2019-06-10T23:24:18.259Z,99.90
2019-06-10T23:26:49.729Z,99.90
2019-06-10T23:29:22.654Z,99.90
2019-06-10T23:32:00.699Z,99.90
2019-06-10T23:34:25.124Z,99.90
2019-06-10T23:36:57.103Z,99.90
2019-06-10T23:39:28.003Z,99.90
2019-06-10T23:41:59.554Z,99.90
2019-06-10T23:44:32.999Z,99.90
2019-06-10T23:47:04.385Z,99.90
2019-06-10T23:49:35.936Z,99.90
2019-06-10T23:52:06.911Z,99.90
2019-06-10T23:54:37.400Z,99.90
2019-06-10T23:57:08.287Z,99.90
2019-06-10T23:59:42.620Z,99.90
